Shirley Center, Massachusetts
Current Conditions -  °F | °C
As of 3:52 AM on Sunday 23 Nov 2014 (Local Time) from KFIT Reporting Station
Few Clouds Few Clouds  
Wind Chill: 40°   Ceiling: Unl
Heat Index: 43°   Visibility: 10mi
Dew Point: 26°   Wind: 5mph
Humidity: 51%   Direction: NA
Pressure: 30.07"   Gusts: NA
Location:  42.5726°N, 71.6476°W
Report Text: KFIT 230852Z AUTO VRB04KT 10SM FEW110 06/M03 A3007 RMK AO2 SLP184 T00611033 53007
Loading
Personal Weather Stations






























Interactive Weather Map New forecast layout! Learn more

10-Day Weather Forecast

Advertisements
Track Severe Weather on mobile